Time;durP1;ratioP1;P1;durP2;ratioP2;P2;SDS_P1;SDS_P2;PMS_P1;PMS_P2;Temp;Humidity;BMP_temperature;BMP_pressure;BME280_temperature;BME280_humidity;BME280_pressure;Samples;Min_cycle;Max_cycle;Signal;HPM_P1;HPM_P2
2022/12/24 00:00:11;;;;;;;52.88;9.07;;;;;;;13.29;81.67;100753.38;5074744;28;20056;-63
2022/12/24 00:02:44;;;;;;;49.95;7.95;;;;;;;13.32;81.65;100755.47;5077005;28;20060;-64
2022/12/24 00:05:12;;;;;;;43.40;7.13;;;;;;;13.43;83.86;100765.06;5077970;28;20542;-66
2022/12/24 00:07:39;;;;;;;42.30;7.75;;;;;;;13.40;81.90;100757.41;5041665;28;20064;-63
2022/12/24 00:10:07;;;;;;;45.00;8.02;;;;;;;13.45;82.42;100758.06;5056965;28;20056;-63
2022/12/24 00:12:35;;;;;;;38.00;7.47;;;;;;;13.10;80.34;100758.47;5075997;28;20423;-66
2022/12/24 00:15:04;;;;;;;41.13;8.00;;;;;;;13.02;81.76;100762.88;5093533;28;20055;-67
2022/12/24 00:17:31;;;;;;;47.30;8.23;;;;;;;13.04;81.26;100766.13;5077363;28;20048;-63
2022/12/24 00:19:59;;;;;;;43.72;7.75;;;;;;;13.06;81.56;100752.78;5078028;28;20053;-63
2022/12/24 00:22:26;;;;;;;43.95;8.13;;;;;;;13.06;81.41;100757.50;5058504;28;20056;-63
2022/12/24 00:24:53;;;;;;;43.92;8.27;;;;;;;13.21;80.45;100765.28;5077823;28;20059;-65
2022/12/24 00:27:21;;;;;;;42.15;7.93;;;;;;;13.35;80.70;100763.94;5092007;28;20048;-67
2022/12/24 00:29:49;;;;;;;34.15;7.15;;;;;;;13.78;81.28;100760.19;5077900;28;20049;-64
2022/12/24 00:32:16;;;;;;;43.88;8.70;;;;;;;13.32;79.14;100756.31;5042623;28;20055;-63
2022/12/24 00:34:44;;;;;;;46.30;7.53;;;;;;;13.17;80.11;100756.84;5077835;28;20534;-63
2022/12/24 00:37:11;;;;;;;43.25;8.45;;;;;;;13.14;80.40;100763.03;5059234;28;20048;-63
2022/12/24 00:39:38;;;;;;;46.20;7.68;;;;;;;13.12;81.75;100767.25;5075244;28;20056;-68
2022/12/24 00:42:05;;;;;;;39.08;7.22;;;;;;;13.24;83.11;100773.75;5058761;28;20056;-63
2022/12/24 00:44:33;;;;;;;52.28;9.10;;;;;;;13.17;82.80;100787.28;5059139;28;20064;-63
2022/12/24 00:47:00;;;;;;;52.33;8.35;;;;;;;13.30;83.64;100788.22;5076642;28;20045;-67
2022/12/24 00:49:36;;;;;;;38.45;7.43;;;;;;;13.33;84.21;100793.91;5077388;28;20048;-63
2022/12/24 00:52:03;;;;;;;45.50;7.22;;;;;;;13.31;83.15;100801.72;5076054;28;20052;-62
2022/12/24 00:54:30;;;;;;;38.10;6.95;;;;;;;13.39;83.98;100789.81;5055072;28;20059;-63
2022/12/24 00:56:58;;;;;;;46.15;8.57;;;;;;;13.22;81.73;100770.50;5092337;28;20051;-62
2022/12/24 00:59:25;;;;;;;37.78;6.82;;;;;;;13.13;81.21;100782.72;5076354;28;20419;-63
2022/12/24 01:01:53;;;;;;;35.90;6.57;;;;;;;13.40;83.69;100805.28;5075951;28;20053;-63
2022/12/24 01:07:08;;;;;;;52.67;7.88;;;;;;;13.45;85.50;100799.56;5044952;28;20506;-63
2022/12/24 01:09:35;;;;;;;47.40;8.70;;;;;;;13.24;82.02;100803.34;5075380;28;20054;-63
2022/12/24 01:12:03;;;;;;;50.20;8.98;;;;;;;13.20;81.48;100805.13;5076558;28;20056;-63
2022/12/24 01:14:30;;;;;;;46.40;8.18;;;;;;;13.11;81.84;100783.03;5076037;28;20052;-63
2022/12/24 01:16:57;;;;;;;44.38;7.43;;;;;;;13.17;82.80;100787.28;5076315;28;20059;-62
2022/12/24 01:19:25;;;;;;;50.50;8.98;;;;;;;12.89;82.85;100796.22;5075386;28;20052;-63
2022/12/24 01:21:52;;;;;;;48.92;8.52;;;;;;;12.96;83.56;100782.72;5074874;28;20049;-63
2022/12/24 01:24:20;;;;;;;43.33;7.78;;;;;;;12.98;83.35;100774.91;5075223;28;20056;-64
2022/12/24 01:26:47;;;;;;;44.03;7.10;;;;;;;13.09;83.20;100779.78;5058346;28;20048;-62
2022/12/24 01:29:15;;;;;;;48.75;8.60;;;;;;;12.93;82.52;100786.97;5075543;28;20044;-63
2022/12/24 01:31:42;;;;;;;51.35;8.30;;;;;;;13.01;82.69;100811.00;5091035;28;20063;-63
2022/12/24 01:34:10;;;;;;;48.40;8.15;;;;;;;13.17;82.49;100823.22;5076465;28;20044;-62
2022/12/24 01:36:37;;;;;;;44.72;8.43;;;;;;;12.98;82.90;100819.16;5037394;28;20060;-62
2022/12/24 01:39:04;;;;;;;40.22;7.45;;;;;;;13.07;83.66;100811.69;5056104;28;20060;-62
2022/12/24 01:44:20;;;;;;;39.88;7.57;;;;;;;12.87;84.05;100801.25;5056257;28;20048;-63
2022/12/24 01:46:49;;;;;;;44.83;8.00;;;;;;;13.00;83.82;100806.63;5051216;28;20052;-64
2022/12/24 01:49:17;;;;;;;46.47;7.53;;;;;;;12.92;83.84;100806.66;5042066;28;20123;-63
2022/12/24 01:51:45;;;;;;;43.35;8.25;;;;;;;12.81;83.59;100811.69;5075455;28;20290;-62
2022/12/24 01:54:21;;;;;;;44.67;8.23;;;;;;;12.88;84.25;100822.25;5057523;28;20064;-62
2022/12/24 01:56:56;;;;;;;46.90;8.02;;;;;;;12.87;84.14;100821.44;5056937;28;20056;-63
2022/12/24 01:59:23;;;;;;;43.45;7.45;;;;;;;12.72;84.59;100823.88;5075934;28;20048;-64
2022/12/24 02:01:52;;;;;;;39.92;7.72;;;;;;;12.83;84.69;100828.75;5074021;28;20064;-62
2022/12/24 02:04:39;;;;;;;56.65;7.70;;;;;;;12.91;85.15;100825.19;5058132;28;20063;-63
2022/12/24 02:07:07;;;;;;;40.22;7.90;;;;;;;12.94;85.62;100827.28;5075165;28;20059;-62
2022/12/24 02:09:35;;;;;;;48.38;8.75;;;;;;;12.85;85.15;100843.06;5075714;28;20044;-63
2022/12/24 02:12:03;;;;;;;46.90;7.15;;;;;;;12.98;85.52;100847.63;5074502;28;20040;-63
2022/12/24 02:14:31;;;;;;;52.05;8.50;;;;;;;13.08;85.78;100836.25;5057040;28;20053;-63
2022/12/24 02:17:05;;;;;;;48.20;7.78;;;;;;;13.27;87.58;100831.16;5090392;28;20416;-63
2022/12/24 02:19:38;;;;;;;47.63;8.35;;;;;;;13.31;84.86;100843.22;5075703;28;20040;-63
2022/12/24 02:22:11;;;;;;;44.08;8.35;;;;;;;13.04;84.14;100832.50;5075349;28;20419;-64
2022/12/24 02:24:45;;;;;;;49.90;7.43;;;;;;;13.02;84.82;100834.78;5056599;28;20052;-63
2022/12/24 02:27:25;;;;;;;50.22;8.70;;;;;;;12.83;84.25;100833.47;5055851;28;20511;-63
2022/12/24 02:30:15;;;;;;;50.75;7.95;;;;;;;12.80;85.09;100834.09;5057952;28;20037;-63
2022/12/24 02:33:19;;;;;;;39.53;7.82;;;;;;;12.85;85.24;100840.28;5090459;28;20541;-62
2022/12/24 02:35:57;;;;;;;48.58;7.75;;;;;;;12.72;85.21;100844.03;5055502;28;20043;-62
2022/12/24 02:38:30;;;;;;;54.30;7.95;;;;;;;13.05;84.98;100834.16;5055650;28;20047;-63
2022/12/24 02:41:02;;;;;;;42.50;7.45;;;;;;;12.97;84.07;100831.34;5056099;28;20045;-62
2022/12/24 02:43:36;;;;;;;46.05;8.27;;;;;;;12.98;85.43;100828.25;5057595;28;20048;-62
2022/12/24 02:46:11;;;;;;;52.80;9.00;;;;;;;12.92;85.01;100818.50;5056638;28;20049;-63
2022/12/24 02:48:40;;;;;;;41.47;7.90;;;;;;;12.99;85.10;100824.34;5052416;28;20048;-63
2022/12/24 02:51:09;;;;;;;40.10;7.68;;;;;;;12.97;85.41;100829.38;5045448;28;20423;-63
2022/12/24 02:53:38;;;;;;;49.33;8.63;;;;;;;12.94;86.55;100843.88;5074314;28;20467;-63
2022/12/24 02:56:29;;;;;;;46.80;7.97;;;;;;;13.05;86.57;100839.69;5055823;28;20048;-63
2022/12/24 02:59:05;;;;;;;49.65;7.40;;;;;;;12.91;84.15;100822.41;5090535;28;20052;-63
2022/12/24 03:02:02;;;;;;;46.17;8.23;;;;;;;12.90;84.42;100825.50;5089832;28;20045;-62
2022/12/24 03:04:44;;;;;;;47.10;8.43;;;;;;;12.96;83.57;100819.47;5059513;28;20060;-63
2022/12/24 03:07:23;;;;;;;44.45;8.38;;;;;;;12.82;84.57;100812.47;5039809;28;20059;-63
2022/12/24 03:10:14;;;;;;;46.70;7.40;;;;;;;12.94;84.35;100816.22;5088242;28;20040;-63
2022/12/24 03:12:42;;;;;;;;;;;;;;;12.90;83.63;100815.25;5057361;28;20045;-62
2022/12/24 03:15:14;;;;;;;48.65;7.85;;;;;;;13.01;84.24;100818.47;5056858;28;19920;-63
2022/12/24 03:17:43;;;;;;;47.53;8.35;;;;;;;13.03;84.17;100821.78;5056772;28;20376;-62
2022/12/24 03:20:12;;;;;;;43.92;6.95;;;;;;;12.89;84.37;100819.16;5090011;28;20556;-62
2022/12/24 03:22:40;;;;;;;43.97;8.15;;;;;;;12.89;84.34;100813.63;5055708;28;20421;-61
2022/12/24 03:25:07;;;;;;;47.17;8.77;;;;;;;12.89;84.71;100813.63;5074754;28;20203;-62
2022/12/24 03:27:35;;;;;;;34.90;7.70;;;;;;;12.93;84.20;100800.78;5056613;28;20056;-64
2022/12/24 03:30:09;;;;;;;41.85;7.07;;;;;;;13.07;84.63;100812.50;5067718;28;20487;-63
2022/12/24 03:32:37;;;;;;;47.15;7.82;;;;;;;13.00;84.16;100812.16;5056261;28;20067;-62
2022/12/24 03:35:06;;;;;;;47.50;7.32;;;;;;;12.85;84.58;100820.16;5090441;28;20049;-62
2022/12/24 03:37:35;;;;;;;39.10;7.47;;;;;;;12.93;84.35;100820.13;5077345;28;20056;-62
2022/12/24 03:40:04;;;;;;;62.63;9.13;;;;;;;12.94;84.29;100813.47;5043362;28;20044;-62
2022/12/24 03:42:31;;;;;;;50.92;8.18;;;;;;;12.94;84.03;100821.75;5078043;28;20053;-67
2022/12/24 03:44:59;;;;;;;41.72;7.80;;;;;;;12.88;84.56;100830.53;5043428;28;20052;-62
2022/12/24 03:47:26;;;;;;;43.85;7.25;;;;;;;12.86;84.81;100830.88;5077722;28;20052;-62
2022/12/24 03:49:53;;;;;;;45.35;8.00;;;;;;;12.95;84.39;100828.09;5043001;28;20538;-62
2022/12/24 03:52:21;;;;;;;47.58;7.53;;;;;;;12.87;84.52;100826.97;5058282;28;20083;-63
2022/12/24 03:54:48;;;;;;;49.45;8.73;;;;;;;12.77;84.78;100827.28;5060338;28;20048;-62
2022/12/24 03:57:15;;;;;;;51.47;8.93;;;;;;;12.81;84.95;100825.50;5059845;28;20048;-63
2022/12/24 03:59:43;;;;;;;46.03;8.48;;;;;;;12.77;85.27;100821.75;5059689;28;20071;-66
2022/12/24 04:02:10;;;;;;;46.38;7.88;;;;;;;12.75;85.73;100829.56;5077717;28;20056;-62
2022/12/24 04:04:38;;;;;;;51.25;8.27;;;;;;;12.70;86.39;100837.19;5077890;28;20052;-67
2022/12/24 04:07:05;;;;;;;50.83;8.85;;;;;;;12.69;86.32;100846.63;5059095;28;20047;-68
2022/12/24 04:09:33;;;;;;;51.30;9.00;;;;;;;12.72;86.54;100844.03;5060031;28;20531;-63
2022/12/24 04:12:00;;;;;;;52.83;9.27;;;;;;;12.44;87.04;100849.06;5058880;28;20380;-63
2022/12/24 04:14:27;;;;;;;47.28;8.35;;;;;;;12.35;87.40;100855.69;5077679;28;20407;-62
2022/12/24 04:16:55;;;;;;;44.85;8.05;;;;;;;12.59;87.94;100855.25;5077400;28;20052;-63
2022/12/24 04:19:22;;;;;;;41.85;6.70;;;;;;;12.69;87.45;100858.50;5077713;28;20056;-62
2022/12/24 04:21:49;;;;;;;45.88;8.43;;;;;;;12.69;86.51;100860.47;5041952;28;20055;-67
2022/12/24 04:24:17;;;;;;;42.75;8.10;;;;;;;12.61;86.73;100862.06;5077387;28;20384;-66
2022/12/24 04:26:44;;;;;;;43.72;8.07;;;;;;;12.81;88.22;100866.97;5058911;28;20063;-63
2022/12/24 04:29:12;;;;;;;49.22;7.95;;;;;;;12.60;86.80;100874.28;5077787;28;20053;-67
2022/12/24 04:31:39;;;;;;;46.25;7.57;;;;;;;12.72;86.94;100873.63;5077171;28;20055;-67
2022/12/24 04:34:07;;;;;;;47.25;8.05;;;;;;;12.73;86.27;100876.06;5077546;28;20070;-69
2022/12/24 04:36:34;;;;;;;43.95;7.68;;;;;;;12.86;86.12;100877.03;5076947;28;20055;-67
2022/12/24 04:39:02;;;;;;;40.70;7.20;;;;;;;12.83;86.01;100881.25;5095121;28;20515;-63
2022/12/24 04:41:29;;;;;;;49.63;8.07;;;;;;;12.71;85.84;100874.78;5077707;28;20044;-63
2022/12/24 04:43:57;;;;;;;51.00;8.75;;;;;;;12.75;86.71;100873.78;5059390;28;20052;-63
2022/12/24 04:46:29;;;;;;;47.65;7.90;;;;;;;12.85;86.06;100887.28;5058741;28;20399;-63
2022/12/24 04:48:57;;;;;;;45.30;7.28;;;;;;;12.78;85.36;100886.94;5077409;28;20056;-63
2022/12/24 04:51:25;;;;;;;49.25;8.73;;;;;;;12.72;86.02;100881.91;5076927;28;20043;-63
2022/12/24 04:53:54;;;;;;;42.08;8.32;;;;;;;12.95;85.85;100880.63;5076422;28;20075;-63
2022/12/24 04:56:24;;;;;;;45.20;8.75;;;;;;;12.87;85.44;100879.47;5076085;28;20603;-63
2022/12/24 04:58:51;;;;;;;44.47;8.03;;;;;;;12.84;85.56;100885.66;5042905;28;20078;-63
2022/12/24 05:01:21;;;;;;;47.88;8.38;;;;;;;12.82;85.68;100885.19;5076543;28;20303;-62
2022/12/24 05:03:49;;;;;;;55.22;8.60;;;;;;;12.78;85.89;100886.94;5092312;28;20056;-62
2022/12/24 05:06:19;;;;;;;48.15;8.45;;;;;;;12.90;85.89;100900.16;5075224;28;20048;-62
2022/12/24 05:08:47;;;;;;;41.92;7.38;;;;;;;12.71;85.98;100894.13;5077498;28;20044;-63
2022/12/24 05:11:14;;;;;;;46.83;7.72;;;;;;;12.73;86.28;100892.63;5075707;28;20050;-63
2022/12/24 05:13:43;;;;;;;46.97;8.23;;;;;;;12.74;86.33;100897.06;5058787;28;20056;-64
2022/12/24 05:16:15;;;;;;;49.72;8.60;;;;;;;12.55;87.29;100892.94;5059282;28;20056;-63
2022/12/24 05:18:42;;;;;;;43.05;7.68;;;;;;;12.69;87.17;100888.09;5076696;28;20510;-63
2022/12/24 05:21:12;;;;;;;49.67;8.82;;;;;;;12.56;88.63;100889.03;5058419;28;20047;-63
2022/12/24 05:26:29;;;;;;;49.80;8.65;;;;;;;12.67;87.44;100896.72;5075256;28;20397;-63
2022/12/24 05:28:58;;;;;;;45.10;7.20;;;;;;;12.64;88.10;100897.34;5041970;28;20392;-63
2022/12/24 05:31:27;;;;;;;53.42;8.23;;;;;;;12.48;89.12;100892.59;5075514;28;20352;-63
2022/12/24 05:33:55;;;;;;;44.13;8.25;;;;;;;12.71;89.18;100885.81;5076339;28;20053;-63
2022/12/24 05:36:23;;;;;;;43.22;7.40;;;;;;;12.79;87.75;100883.06;5054732;28;20049;-63
2022/12/24 05:38:51;;;;;;;44.65;8.27;;;;;;;12.78;88.30;100883.41;5038494;28;20056;-64
2022/12/24 05:41:18;;;;;;;49.00;8.18;;;;;;;12.85;87.92;100870.69;5085303;28;20048;-62
2022/12/24 05:43:45;;;;;;;45.58;8.77;;;;;;;12.89;88.60;100881.91;5076485;28;20052;-64
2022/12/24 05:46:15;;;;;;;56.85;9.25;;;;;;;12.81;89.72;100863.38;5075642;28;20052;-63
2022/12/24 05:48:42;;;;;;;53.95;8.15;;;;;;;12.79;89.33;100869.25;5076181;28;20048;-62
2022/12/24 05:51:11;;;;;;;50.83;8.20;;;;;;;12.94;88.48;100879.81;5075490;28;20040;-62
2022/12/24 05:53:39;;;;;;;51.73;9.50;;;;;;;12.78;88.29;100875.09;5057141;28;20060;-63
2022/12/24 05:56:09;;;;;;;50.50;7.65;;;;;;;12.94;88.75;100867.94;5075226;28;20055;-62
2022/12/24 05:58:37;;;;;;;;;;;;;;;12.77;89.39;100862.41;5041057;28;20630;-62
2022/12/24 06:01:05;;;;;;;49.78;8.50;;;;;;;12.81;89.47;100855.91;5075578;28;19927;-63
2022/12/24 06:03:33;;;;;;;43.83;7.72;;;;;;;12.69;89.90;100861.28;5075085;28;20052;-62
2022/12/24 06:06:01;;;;;;;41.97;8.27;;;;;;;12.93;90.26;100858.03;5075928;28;20059;-64
2022/12/24 06:08:30;;;;;;;48.58;8.20;;;;;;;12.78;89.61;100861.28;5075017;28;20071;-63
2022/12/24 06:10:59;;;;;;;46.33;7.53;;;;;;;12.67;89.88;100849.72;5090005;28;20048;-63
2022/12/24 06:13:27;;;;;;;46.78;8.45;;;;;;;12.95;90.50;100853.81;5041426;28;20051;-63
2022/12/24 06:15:56;;;;;;;42.30;7.72;;;;;;;12.80;89.20;100870.03;5056611;28;20044;-63
2022/12/24 06:18:24;;;;;;;43.72;8.20;;;;;;;12.77;89.15;100867.94;5041181;28;20044;-64
2022/12/24 06:20:53;;;;;;;46.33;7.93;;;;;;;12.79;89.95;100877.53;5073834;28;20036;-63
2022/12/24 06:23:21;;;;;;;56.50;8.87;;;;;;;12.73;89.79;100875.22;5056885;28;20087;-63
2022/12/24 06:25:49;;;;;;;45.05;7.30;;;;;;;12.84;90.28;100869.09;5075032;28;20062;-63
2022/12/24 06:28:16;;;;;;;39.10;7.90;;;;;;;12.93;89.00;100864.38;5041355;28;20460;-62
2022/12/24 06:30:48;;;;;;;49.25;7.70;;;;;;;12.68;89.72;100867.09;5022760;28;20048;-63
2022/12/24 06:33:16;;;;;;;51.15;8.65;;;;;;;12.80;89.57;100868.09;5075305;28;20048;-63
2022/12/24 06:35:44;;;;;;;42.75;7.72;;;;;;;12.72;89.01;100868.91;5074784;28;20051;-63
2022/12/24 06:38:13;;;;;;;39.47;7.85;;;;;;;12.75;89.03;100859.16;5074616;28;20064;-63
2022/12/24 06:40:42;;;;;;;34.30;6.13;;;;;;;12.70;89.21;100865.66;5074790;28;20427;-62
2022/12/24 06:43:10;;;;;;;38.65;6.93;;;;;;;12.69;88.28;100860.47;5056419;28;20045;-62
2022/12/24 06:45:37;;;;;;;37.78;6.28;;;;;;;12.56;87.91;100865.00;5040337;28;20044;-63
2022/12/24 06:48:05;;;;;;;40.78;6.63;;;;;;;12.60;87.92;100862.41;5075270;28;20048;-62
2022/12/24 06:50:33;;;;;;;35.53;6.63;;;;;;;12.56;87.33;100856.69;5074530;28;20059;-63
2022/12/24 06:53:00;;;;;;;24.70;5.10;;;;;;;12.76;88.69;100867.09;5074806;28;20053;-62
2022/12/24 06:55:27;;;;;;;34.35;6.10;;;;;;;12.74;87.13;100863.88;5074769;28;20066;-62
2022/12/24 06:57:55;;;;;;;34.78;5.78;;;;;;;12.86;87.98;100863.22;5074654;28;20052;-62
2022/12/24 07:00:22;;;;;;;30.17;5.43;;;;;;;12.68;87.85;100865.16;5072551;28;20109;-64
2022/12/24 07:02:49;;;;;;;24.50;5.20;;;;;;;12.44;86.95;100870.34;5056263;28;20051;-63
2022/12/24 07:05:17;;;;;;;24.88;4.57;;;;;;;12.41;87.83;100866.25;5057077;28;20052;-63
2022/12/24 07:07:44;;;;;;;27.60;4.57;;;;;;;12.43;87.01;100865.94;5074697;28;20533;-63
2022/12/24 07:10:14;;;;;;;24.70;4.28;;;;;;;12.48;86.89;100860.28;5073970;28;20053;-63
2022/12/24 07:12:42;;;;;;;25.85;3.88;;;;;;;12.49;87.67;100870.19;5078003;28;20049;-63
2022/12/24 07:15:10;;;;;;;31.20;4.97;;;;;;;12.55;86.67;100868.91;5078315;28;20546;-62
2022/12/24 07:17:38;;;;;;;26.52;5.00;;;;;;;12.71;86.19;100863.72;5078799;28;20051;-62
2022/12/24 07:20:07;;;;;;;25.20;4.30;;;;;;;12.63;86.09;100879.13;5060939;28;20048;-62
2022/12/24 07:22:34;;;;;;;28.05;4.72;;;;;;;12.44;86.47;100884.16;5078061;28;20044;-62
2022/12/24 07:25:02;;;;;;;19.50;3.47;;;;;;;12.60;87.06;100878.97;5060989;28;20044;-62
2022/12/24 07:27:29;;;;;;;20.67;3.70;;;;;;;12.60;86.38;100887.25;5060581;28;20060;-62
2022/12/24 07:29:56;;;;;;;26.85;4.53;;;;;;;12.44;86.94;100884.97;5043195;28;20048;-62
2022/12/24 07:32:24;;;;;;;26.33;4.20;;;;;;;12.30;86.86;100878.75;5077820;28;20049;-63
2022/12/24 07:34:51;;;;;;;24.33;3.88;;;;;;;12.39;86.50;100879.59;5078759;28;20075;-63
2022/12/24 07:37:18;;;;;;;31.88;4.35;;;;;;;12.66;86.08;100881.25;5076454;28;20056;-64
2022/12/24 07:39:45;;;;;;;18.58;3.60;;;;;;;12.54;86.28;100886.59;5077894;28;20067;-67
2022/12/24 07:42:13;;;;;;;24.25;4.00;;;;;;;12.57;86.51;100883.19;5077852;28;20059;-68
2022/12/24 07:44:40;;;;;;;25.65;3.90;;;;;;;12.42;85.31;100891.94;5092924;28;20052;-66
2022/12/24 07:47:08;;;;;;;23.95;3.70;;;;;;;12.43;85.60;100902.66;5089257;28;20056;-67
2022/12/24 07:49:35;;;;;;;20.45;4.25;;;;;;;12.72;87.00;100901.25;5062942;28;20056;-67
2022/12/24 07:52:03;;;;;;;29.65;4.18;;;;;;;12.74;86.13;100912.81;5064385;28;20052;-68
2022/12/24 07:54:31;;;;;;;18.30;3.33;;;;;;;12.65;85.04;100903.69;5060340;28;20052;-68
2022/12/24 07:56:58;;;;;;;27.15;4.07;;;;;;;12.78;86.19;100900.78;5077777;28;20056;-68
2022/12/24 07:59:25;;;;;;;24.38;3.25;;;;;;;12.83;84.27;100908.91;5077088;28;20049;-69
2022/12/24 08:01:53;;;;;;;21.00;4.10;;;;;;;12.78;83.99;100899.97;5076322;28;20059;-63
2022/12/24 08:04:20;;;;;;;31.40;4.15;;;;;;;12.71;84.66;100905.97;5079835;28;20056;-63
2022/12/24 08:06:47;;;;;;;27.13;6.15;;;;;;;12.61;85.90;100914.56;5055241;28;20059;-63
2022/12/24 08:09:15;;;;;;;31.25;12.63;;;;;;;12.77;84.78;100903.88;5058496;28;20053;-64
2022/12/24 08:11:43;;;;;;;31.65;10.82;;;;;;;12.71;86.27;100908.72;5072162;28;20045;-63
2022/12/24 08:14:18;;;;;;;29.13;7.88;;;;;;;12.56;84.55;100911.97;5077343;28;20045;-64
2022/12/24 08:16:46;;;;;;;28.38;7.75;;;;;;;12.70;84.42;100914.59;5091058;28;20136;-63
2022/12/24 08:19:13;;;;;;;22.85;5.05;;;;;;;12.89;83.94;100921.44;5077386;28;20063;-64
2022/12/24 08:21:40;;;;;;;16.35;3.05;;;;;;;13.46;88.28;100925.69;5076496;28;20051;-69
2022/12/24 08:24:08;;;;;;;20.00;3.78;;;;;;;13.32;84.21;100919.53;5074389;28;20495;-68
2022/12/24 08:26:35;;;;;;;22.33;4.32;;;;;;;13.45;82.77;100931.56;5076196;28;20056;-68
2022/12/24 08:29:03;;;;;;;17.00;3.50;;;;;;;13.66;81.80;100931.69;5073311;28;20060;-67
2022/12/24 08:31:35;;;;;;;24.75;4.07;;;;;;;13.54;80.00;100937.91;5057512;28;20052;-67
2022/12/24 08:34:04;;;;;;;23.85;4.05;;;;;;;13.66;79.80;100942.75;5070936;28;20519;-68
2022/12/24 08:36:32;;;;;;;33.10;15.35;;;;;;;13.61;80.28;100948.47;5056182;28;20053;-67
2022/12/24 08:39:02;;;;;;;31.00;9.75;;;;;;;13.50;79.95;100964.59;5084645;28;20056;-65
2022/12/24 08:41:30;;;;;;;29.25;4.90;;;;;;;13.42;80.91;100952.38;5074252;28;20048;-68
2022/12/24 08:43:58;;;;;;;26.05;4.18;;;;;;;13.37;82.22;100958.09;5089448;28;20044;-63
2022/12/24 08:46:25;;;;;;;21.50;4.00;;;;;;;13.22;81.51;100961.34;5074344;28;20063;-70
2022/12/24 08:48:53;;;;;;;15.43;3.15;;;;;;;13.21;80.99;100959.75;5075800;28;20044;-62
2022/12/24 08:51:20;;;;;;;30.88;4.88;;;;;;;13.06;81.86;100970.44;5065535;28;20045;-68
2022/12/24 08:53:47;;;;;;;24.30;3.65;;;;;;;12.96;82.07;100971.53;5058563;28;20056;-62
2022/12/24 08:56:15;;;;;;;21.95;3.75;;;;;;;13.18;82.15;100970.63;5072004;28;20048;-66
2022/12/24 08:58:43;;;;;;;23.50;3.47;;;;;;;13.06;81.76;100967.66;5088289;28;20131;-68
2022/12/24 09:01:13;;;;;;;24.38;3.85;;;;;;;12.92;82.55;100976.09;5060107;28;20048;-66
2022/12/24 09:03:41;;;;;;;18.40;3.47;;;;;;;12.94;82.69;100984.88;5073890;28;20527;-65
2022/12/24 09:06:09;;;;;;;32.65;12.07;;;;;;;12.94;83.06;100995.94;5057813;28;20044;-66
2022/12/24 09:08:36;;;;;;;25.45;10.57;;;;;;;13.12;83.45;100992.09;5088099;28;20060;-65
2022/12/24 09:11:14;;;;;;;29.40;12.02;;;;;;;12.86;82.27;100999.50;5059099;28;20041;-65
2022/12/24 09:13:42;;;;;;;18.77;3.97;;;;;;;12.99;84.30;101012.38;5061165;28;20041;-65
2022/12/24 09:16:10;;;;;;;19.42;3.30;;;;;;;12.98;83.02;101019.06;5053981;28;20044;-64
2022/12/24 09:18:38;;;;;;;21.27;3.72;;;;;;;12.97;83.00;101016.63;5056067;28;20525;-67
2022/12/24 09:21:13;;;;;;;28.60;3.90;;;;;;;12.88;82.87;101016.59;5065832;28;20051;-68
2022/12/24 09:23:42;;;;;;;21.40;4.13;;;;;;;12.91;82.94;101017.88;5069979;28;20044;-63
2022/12/24 09:26:14;;;;;;;22.63;3.50;;;;;;;12.81;83.63;101023.72;5072019;28;20048;-64
2022/12/24 09:28:41;;;;;;;19.35;3.50;;;;;;;12.94;83.64;101025.53;5071380;28;20048;-65
2022/12/24 09:31:09;;;;;;;19.38;3.50;;;;;;;13.00;83.59;101036.13;5064001;28;20044;-67
2022/12/24 09:33:38;;;;;;;16.73;3.47;;;;;;;12.97;83.99;101034.00;5081697;28;20067;-68
2022/12/24 09:36:06;;;;;;;18.38;3.58;;;;;;;13.16;84.02;101031.00;5053097;28;20409;-66
2022/12/24 09:38:37;;;;;;;22.80;3.78;;;;;;;12.95;83.05;101041.81;5070568;28;20044;-67
2022/12/24 09:41:23;;;;;;;18.67;3.25;;;;;;;12.97;83.23;101036.75;5036816;28;20052;-64
2022/12/24 09:44:02;;;;;;;25.60;3.58;;;;;;;12.88;83.34;101038.72;5084980;28;20055;-61
2022/12/24 09:46:34;;;;;;;27.08;4.20;;;;;;;12.98;83.30;101029.28;5084326;28;20071;-65
2022/12/24 09:49:07;;;;;;;25.52;3.05;;;;;;;12.84;83.94;101036.88;5051303;28;20051;-63
2022/12/24 09:51:46;;;;;;;27.92;6.32;;;;;;;12.95;83.47;101028.00;5053038;28;20036;-64
2022/12/24 09:54:21;;;;;;;34.00;12.18;;;;;;;12.94;83.84;101026.34;5056668;28;20055;-68
2022/12/24 09:56:49;;;;;;;40.85;17.00;;;;;;;13.00;84.08;101027.84;5060722;28;20059;-62
2022/12/24 09:59:20;;;;;;;38.00;16.23;;;;;;;13.03;85.36;101027.22;5047746;28;20503;-62
2022/12/24 10:01:49;;;;;;;23.30;3.88;;;;;;;12.89;84.11;101023.75;5081939;28;20045;-62
2022/12/24 10:04:20;;;;;;;17.63;3.47;;;;;;;12.94;84.01;101015.28;5086609;28;20060;-63
2022/12/24 10:06:53;;;;;;;16.83;3.38;;;;;;;13.05;83.56;101022.19;5069800;28;20307;-61
2022/12/24 10:09:20;;;;;;;24.08;4.13;;;;;;;13.08;83.43;101031.78;5055020;28;20056;-62
2022/12/24 10:12:13;;;;;;;23.83;4.75;;;;;;;13.07;83.91;101030.97;5086119;28;20056;-62
2022/12/24 10:14:49;;;;;;;21.20;3.42;;;;;;;13.09;84.19;101028.69;5054517;28;20037;-63
2022/12/24 10:17:35;;;;;;;20.27;3.10;;;;;;;13.02;84.02;101033.09;5055490;28;20060;-63
2022/12/24 10:20:17;;;;;;;21.63;3.90;;;;;;;13.05;84.39;101033.25;5055885;28;20044;-63
2022/12/24 10:22:50;;;;;;;18.08;3.67;;;;;;;13.18;83.46;101015.69;5054355;28;20072;-63
2022/12/24 10:25:33;;;;;;;17.80;3.55;;;;;;;13.23;83.19;101020.28;5053232;28;20056;-62
2022/12/24 10:28:04;;;;;;;25.13;6.70;;;;;;;13.17;83.82;101033.44;5052993;28;20045;-62
2022/12/24 10:30:33;;;;;;;36.50;13.25;;;;;;;13.30;84.80;101021.41;5053585;28;20060;-63
2022/12/24 10:33:00;;;;;;;20.38;4.75;;;;;;;13.28;83.31;101020.09;5054980;28;20056;-63
2022/12/24 10:35:39;;;;;;;23.10;6.85;;;;;;;13.21;83.57;101025.31;5036808;28;20465;-62
2022/12/24 10:38:07;;;;;;;11.38;3.47;;;;;;;13.36;84.72;101016.53;5053711;28;20048;-62
2022/12/24 10:40:48;;;;;;;21.95;3.95;;;;;;;13.30;83.75;101012.31;5053945;28;20044;-63
2022/12/24 10:43:23;;;;;;;21.95;3.92;;;;;;;13.16;83.33;101017.16;5052539;28;20056;-62
2022/12/24 10:46:03;;;;;;;22.98;3.47;;;;;;;13.41;85.04;101017.19;5068779;28;20041;-64
2022/12/24 10:48:36;;;;;;;22.58;3.47;;;;;;;13.32;83.38;101018.28;5053753;28;20051;-63
2022/12/24 10:51:06;;;;;;;19.80;3.40;;;;;;;13.61;87.10;101021.25;5086999;28;20056;-63
2022/12/24 10:53:37;;;;;;;24.33;3.03;;;;;;;13.29;82.65;101017.00;5062377;28;20068;-64
2022/12/24 10:56:07;;;;;;;17.73;3.67;;;;;;;13.48;84.58;101013.91;5089828;28;20056;-62
2022/12/24 10:58:34;;;;;;;21.77;3.60;;;;;;;13.33;83.30;101012.47;5073185;28;20048;-63
2022/12/24 11:01:02;;;;;;;19.95;3.55;;;;;;;13.18;82.85;101017.66;5073503;28;20048;-63
2022/12/24 11:03:33;;;;;;;18.17;3.70;;;;;;;13.21;83.63;101012.28;5056160;28;20507;-62
2022/12/24 11:06:13;;;;;;;16.75;3.13;;;;;;;13.28;83.25;101009.03;5073827;28;20053;-63
2022/12/24 11:08:42;;;;;;;14.70;3.13;;;;;;;13.30;83.61;101002.03;5072995;28;20490;-63
2022/12/24 11:11:12;;;;;;;14.00;3.50;;;;;;;13.29;83.21;101005.13;5073095;28;20349;-62
2022/12/24 11:13:51;;;;;;;16.95;3.00;;;;;;;13.38;82.70;101003.19;5069727;28;20043;-62
2022/12/24 11:16:29;;;;;;;18.40;2.90;;;;;;;13.66;85.23;100998.94;5072571;28;20060;-63
2022/12/24 11:19:00;;;;;;;13.73;2.72;;;;;;;13.72;82.36;101008.69;5073069;28;20052;-63
2022/12/24 11:21:52;;;;;;;15.80;3.45;;;;;;;13.81;82.98;101003.19;5072176;28;20063;-63
2022/12/24 11:24:26;;;;;;;14.25;3.40;;;;;;;13.75;84.71;101004.47;5073664;28;20471;-61
2022/12/24 11:26:54;;;;;;;16.02;4.72;;;;;;;13.54;82.21;100998.78;5090102;28;20044;-63
2022/12/24 11:29:26;;;;;;;18.83;4.72;;;;;;;13.38;82.00;100992.94;5072219;28;20040;-64
2022/12/24 11:32:17;;;;;;;15.93;3.85;;;;;;;13.49;82.20;100998.97;5089516;28;20056;-64
2022/12/24 11:34:44;;;;;;;22.98;3.67;;;;;;;13.41;83.30;101005.28;5073822;28;20048;-62
2022/12/24 11:37:22;;;;;;;15.98;3.03;;;;;;;13.31;82.76;100992.59;5089285;28;20048;-63